sensor_id;sensor_type;location;lat;lon;timestamp;temperature;humidity
75899;DHT22;64576;50.460;4.866;2023-04-03T00:01:15;1.62;89.05
75899;DHT22;64576;50.460;4.866;2023-04-03T00:03:41;1.58;89.08
75899;DHT22;64576;50.460;4.866;2023-04-03T00:06:07;1.49;89.66
75899;DHT22;64576;50.460;4.866;2023-04-03T00:08:34;1.35;90.14
75899;DHT22;64576;50.460;4.866;2023-04-03T00:11:00;1.35;89.95
75899;DHT22;64576;50.460;4.866;2023-04-03T00:13:25;1.30;90.59
75899;DHT22;64576;50.460;4.866;2023-04-03T00:15:51;1.27;90.19
75899;DHT22;64576;50.460;4.866;2023-04-03T00:18:17;1.13;90.58
75899;DHT22;64576;50.460;4.866;2023-04-03T00:20:43;1.13;90.98
75899;DHT22;64576;50.460;4.866;2023-04-03T00:23:08;1.01;91.65
75899;DHT22;64576;50.460;4.866;2023-04-03T00:25:34;0.84;92.11
75899;DHT22;64576;50.460;4.866;2023-04-03T00:27:59;1.01;91.69
75899;DHT22;64576;50.460;4.866;2023-04-03T00:30:25;0.93;92.03
75899;DHT22;64576;50.460;4.866;2023-04-03T00:32:51;0.66;92.16
75899;DHT22;64576;50.460;4.866;2023-04-03T00:35:18;0.66;93.02
75899;DHT22;64576;50.460;4.866;2023-04-03T00:37:44;0.58;93.20
75899;DHT22;64576;50.460;4.866;2023-04-03T00:40:11;0.97;92.46
75899;DHT22;64576;50.460;4.866;2023-04-03T00:42:38;0.97;92.36
75899;DHT22;64576;50.460;4.866;2023-04-03T00:47:30;0.87;92.59
75899;DHT22;64576;50.460;4.866;2023-04-03T00:49:56;0.96;93.00
75899;DHT22;64576;50.460;4.866;2023-04-03T00:52:26;0.84;93.00
75899;DHT22;64576;50.460;4.866;2023-04-03T00:54:54;0.84;93.51
75899;DHT22;64576;50.460;4.866;2023-04-03T00:57:22;0.93;93.28
75899;DHT22;64576;50.460;4.866;2023-04-03T00:59:55;0.93;93.35
75899;DHT22;64576;50.460;4.866;2023-04-03T01:02:22;0.81;93.38
75899;DHT22;64576;50.460;4.866;2023-04-03T01:04:48;0.77;93.50
75899;DHT22;64576;50.460;4.866;2023-04-03T01:07:19;0.72;93.93
75899;DHT22;64576;50.460;4.866;2023-04-03T01:09:48;0.72;93.68
75899;DHT22;64576;50.460;4.866;2023-04-03T01:12:15;0.67;94.54
75899;DHT22;64576;50.460;4.866;2023-04-03T01:14:42;0.66;95.07
75899;DHT22;64576;50.460;4.866;2023-04-03T01:17:35;0.83;93.89
75899;DHT22;64576;50.460;4.866;2023-04-03T01:28:07;1.00;92.81
75899;DHT22;64576;50.460;4.866;2023-04-03T01:30:41;0.97;92.82
75899;DHT22;64576;50.460;4.866;2023-04-03T01:33:08;1.00;92.78
75899;DHT22;64576;50.460;4.866;2023-04-03T01:35:33;1.03;92.77
75899;DHT22;64576;50.460;4.866;2023-04-03T01:37:58;1.09;92.65
75899;DHT22;64576;50.460;4.866;2023-04-03T01:40:25;1.14;92.52
75899;DHT22;64576;50.460;4.866;2023-04-03T01:42:50;1.17;92.26
75899;DHT22;64576;50.460;4.866;2023-04-03T01:45:15;1.20;92.56
75899;DHT22;64576;50.460;4.866;2023-04-03T01:47:41;1.15;93.10
75899;DHT22;64576;50.460;4.866;2023-04-03T01:50:07;1.09;93.99
75899;DHT22;64576;50.460;4.866;2023-04-03T01:52:32;0.96;94.09
75899;DHT22;64576;50.460;4.866;2023-04-03T01:54:57;0.66;94.11
75899;DHT22;64576;50.460;4.866;2023-04-03T01:57:23;0.35;94.55
75899;DHT22;64576;50.460;4.866;2023-04-03T01:59:48;0.19;95.54
75899;DHT22;64576;50.460;4.866;2023-04-03T02:02:13;0.37;95.08
75899;DHT22;64576;50.460;4.866;2023-04-03T02:04:40;0.44;94.70
75899;DHT22;64576;50.460;4.866;2023-04-03T02:07:05;0.46;94.62
75899;DHT22;64576;50.460;4.866;2023-04-03T02:09:31;0.42;95.07
75899;DHT22;64576;50.460;4.866;2023-04-03T02:11:56;0.45;95.21
75899;DHT22;64576;50.460;4.866;2023-04-03T02:14:21;0.44;95.31
75899;DHT22;64576;50.460;4.866;2023-04-03T02:16:49;0.44;95.28
75899;DHT22;64576;50.460;4.866;2023-04-03T02:19:14;0.39;95.58
75899;DHT22;64576;50.460;4.866;2023-04-03T02:21:39;0.46;95.78
75899;DHT22;64576;50.460;4.866;2023-04-03T02:24:05;0.42;95.81
75899;DHT22;64576;50.460;4.866;2023-04-03T02:26:31;0.38;95.74
75899;DHT22;64576;50.460;4.866;2023-04-03T02:28:56;0.32;96.14
75899;DHT22;64576;50.460;4.866;2023-04-03T02:31:21;0.28;96.30
75899;DHT22;64576;50.460;4.866;2023-04-03T02:33:47;0.24;96.34
75899;DHT22;64576;50.460;4.866;2023-04-03T02:36:12;0.18;96.77
75899;DHT22;64576;50.460;4.866;2023-04-03T02:38:38;0.21;96.57
75899;DHT22;64576;50.460;4.866;2023-04-03T02:41:08;0.01;97.14
75899;DHT22;64576;50.460;4.866;2023-04-03T02:43:35;-0.02;97.55
75899;DHT22;64576;50.460;4.866;2023-04-03T02:46:00;0.14;96.93
75899;DHT22;64576;50.460;4.866;2023-04-03T02:48:26;0.17;96.62
75899;DHT22;64576;50.460;4.866;2023-04-03T02:50:51;0.26;96.10
75899;DHT22;64576;50.460;4.866;2023-04-03T02:53:17;0.25;96.16
75899;DHT22;64576;50.460;4.866;2023-04-03T02:55:43;0.28;95.61
75899;DHT22;64576;50.460;4.866;2023-04-03T02:58:09;0.31;95.59
75899;DHT22;64576;50.460;4.866;2023-04-03T03:00:35;0.38;94.85
75899;DHT22;64576;50.460;4.866;2023-04-03T03:03:00;0.26;95.10
75899;DHT22;64576;50.460;4.866;2023-04-03T03:05:26;0.29;95.31
75899;DHT22;64576;50.460;4.866;2023-04-03T03:07:52;0.32;95.03
75899;DHT22;64576;50.460;4.866;2023-04-03T03:10:18;0.28;95.06
75899;DHT22;64576;50.460;4.866;2023-04-03T03:12:44;0.28;95.07
75899;DHT22;64576;50.460;4.866;2023-04-03T03:15:10;0.28;94.88
75899;DHT22;64576;50.460;4.866;2023-04-03T03:17:35;0.38;94.54
75899;DHT22;64576;50.460;4.866;2023-04-03T03:20:02;0.35;94.37
75899;DHT22;64576;50.460;4.866;2023-04-03T03:22:28;0.39;94.09
75899;DHT22;64576;50.460;4.866;2023-04-03T03:24:53;0.24;94.88
75899;DHT22;64576;50.460;4.866;2023-04-03T03:27:18;0.28;94.18
75899;DHT22;64576;50.460;4.866;2023-04-03T03:29:44;0.32;93.83
75899;DHT22;64576;50.460;4.866;2023-04-03T03:32:09;0.32;93.69
75899;DHT22;64576;50.460;4.866;2023-04-03T03:34:35;0.31;93.50
75899;DHT22;64576;50.460;4.866;2023-04-03T03:37:00;0.45;92.64
75899;DHT22;64576;50.460;4.866;2023-04-03T03:39:26;0.41;92.66
75899;DHT22;64576;50.460;4.866;2023-04-03T03:41:51;0.45;92.37
75899;DHT22;64576;50.460;4.866;2023-04-03T03:44:19;0.35;92.71
75899;DHT22;64576;50.460;4.866;2023-04-03T03:46:44;0.28;92.82
75899;DHT22;64576;50.460;4.866;2023-04-03T03:49:10;0.31;92.75
75899;DHT22;64576;50.460;4.866;2023-04-03T03:51:36;0.21;93.47
75899;DHT22;64576;50.460;4.866;2023-04-03T03:54:03;0.17;93.51
75899;DHT22;64576;50.460;4.866;2023-04-03T03:56:28;0.07;93.76
75899;DHT22;64576;50.460;4.866;2023-04-03T03:58:53;0.19;93.26
75899;DHT22;64576;50.460;4.866;2023-04-03T04:01:21;0.24;93.03
75899;DHT22;64576;50.460;4.866;2023-04-03T04:03:47;0.04;93.85
75899;DHT22;64576;50.460;4.866;2023-04-03T04:06:12;-0.06;94.16
75899;DHT22;64576;50.460;4.866;2023-04-03T04:08:38;-0.11;94.51
75899;DHT22;64576;50.460;4.866;2023-04-03T04:11:05;-0.09;94.35
75899;DHT22;64576;50.460;4.866;2023-04-03T04:13:30;-0.14;95.05
75899;DHT22;64576;50.460;4.866;2023-04-03T04:15:56;-0.30;95.71
75899;DHT22;64576;50.460;4.866;2023-04-03T04:18:21;-0.42;95.98
75899;DHT22;64576;50.460;4.866;2023-04-03T04:20:48;-0.33;96.18
75899;DHT22;64576;50.460;4.866;2023-04-03T04:23:13;-0.51;96.22
75899;DHT22;64576;50.460;4.866;2023-04-03T04:25:39;-0.58;96.53
75899;DHT22;64576;50.460;4.866;2023-04-03T04:28:05;-0.60;96.51
75899;DHT22;64576;50.460;4.866;2023-04-03T04:30:31;-0.48;96.10
75899;DHT22;64576;50.460;4.866;2023-04-03T04:32:57;-0.44;95.99
75899;DHT22;64576;50.460;4.866;2023-04-03T04:35:22;-0.44;95.86
75899;DHT22;64576;50.460;4.866;2023-04-03T04:37:47;-0.30;94.70
75899;DHT22;64576;50.460;4.866;2023-04-03T04:40:13;-0.28;94.76
75899;DHT22;64576;50.460;4.866;2023-04-03T04:42:38;-0.33;95.42
75899;DHT22;64576;50.460;4.866;2023-04-03T04:45:04;-0.34;95.68
75899;DHT22;64576;50.460;4.866;2023-04-03T04:47:30;-0.31;95.84
75899;DHT22;64576;50.460;4.866;2023-04-03T04:49:55;-0.33;95.75
75899;DHT22;64576;50.460;4.866;2023-04-03T04:52:20;-0.40;95.91
75899;DHT22;64576;50.460;4.866;2023-04-03T04:54:46;-0.24;94.96
75899;DHT22;64576;50.460;4.866;2023-04-03T04:57:11;-0.33;95.42
75899;DHT22;64576;50.460;4.866;2023-04-03T04:59:37;-0.48;95.82
75899;DHT22;64576;50.460;4.866;2023-04-03T05:02:02;-0.64;96.07
75899;DHT22;64576;50.460;4.866;2023-04-03T05:04:27;-0.44;95.82
75899;DHT22;64576;50.460;4.866;2023-04-03T05:06:53;-0.50;95.99
75899;DHT22;64576;50.460;4.866;2023-04-03T05:09:18;-0.47;96.06
75899;DHT22;64576;50.460;4.866;2023-04-03T05:11:45;-0.57;96.39
75899;DHT22;64576;50.460;4.866;2023-04-03T05:14:11;-0.57;96.86
75899;DHT22;64576;50.460;4.866;2023-04-03T05:16:37;-0.45;96.22
75899;DHT22;64576;50.460;4.866;2023-04-03T05:19:02;-0.45;96.11
75899;DHT22;64576;50.460;4.866;2023-04-03T05:21:28;-0.28;95.53
75899;DHT22;64576;50.460;4.866;2023-04-03T05:24:00;-0.18;95.03
75899;DHT22;64576;50.460;4.866;2023-04-03T05:26:28;-0.09;94.23
75899;DHT22;64576;50.460;4.866;2023-04-03T05:28:54;-0.06;93.87
75899;DHT22;64576;50.460;4.866;2023-04-03T05:31:19;0.19;92.86
75899;DHT22;64576;50.460;4.866;2023-04-03T05:33:45;0.53;91.66
75899;DHT22;64576;50.460;4.866;2023-04-03T05:36:11;0.70;90.62
75899;DHT22;64576;50.460;4.866;2023-04-03T05:38:38;0.80;89.62
75899;DHT22;64576;50.460;4.866;2023-04-03T05:41:03;1.04;88.85
75899;DHT22;64576;50.460;4.866;2023-04-03T05:43:29;1.17;88.26
75899;DHT22;64576;50.460;4.866;2023-04-03T05:45:54;1.25;87.84
75899;DHT22;64576;50.460;4.866;2023-04-03T05:48:19;1.43;87.47
75899;DHT22;64576;50.460;4.866;2023-04-03T05:50:46;1.49;86.91
75899;DHT22;64576;50.460;4.866;2023-04-03T05:53:21;1.73;86.25
75899;DHT22;64576;50.460;4.866;2023-04-03T05:55:48;1.63;86.62
75899;DHT22;64576;50.460;4.866;2023-04-03T05:58:14;1.97;85.83
75899;DHT22;64576;50.460;4.866;2023-04-03T06:00:39;2.01;85.38
75899;DHT22;64576;50.460;4.866;2023-04-03T06:03:05;2.41;84.73
75899;DHT22;64576;50.460;4.866;2023-04-03T06:05:31;2.21;83.75
75899;DHT22;64576;50.460;4.866;2023-04-03T06:07:56;2.59;83.00
75899;DHT22;64576;50.460;4.866;2023-04-03T06:10:22;2.65;82.86
75899;DHT22;64576;50.460;4.866;2023-04-03T06:12:48;2.65;82.43
75899;DHT22;64576;50.460;4.866;2023-04-03T06:15:14;2.87;82.38
75899;DHT22;64576;50.460;4.866;2023-04-03T06:17:40;3.30;81.58
75899;DHT22;64576;50.460;4.866;2023-04-03T06:20:06;3.18;80.80
75899;DHT22;64576;50.460;4.866;2023-04-03T06:22:32;3.36;80.99
75899;DHT22;64576;50.460;4.866;2023-04-03T06:24:58;3.87;79.79
75899;DHT22;64576;50.460;4.866;2023-04-03T06:27:23;3.51;80.29
75899;DHT22;64576;50.460;4.866;2023-04-03T06:29:49;3.54;79.30
75899;DHT22;64576;50.460;4.866;2023-04-03T06:32:15;3.55;80.24
75899;DHT22;64576;50.460;4.866;2023-04-03T06:34:41;3.56;80.56
75899;DHT22;64576;50.460;4.866;2023-04-03T06:37:13;3.73;79.98
75899;DHT22;64576;50.460;4.866;2023-04-03T06:39:39;4.17;79.47
75899;DHT22;64576;50.460;4.866;2023-04-03T06:42:05;4.68;78.19
75899;DHT22;64576;50.460;4.866;2023-04-03T06:44:30;4.31;76.74
75899;DHT22;64576;50.460;4.866;2023-04-03T06:46:56;4.89;77.61
75899;DHT22;64576;50.460;4.866;2023-04-03T06:49:22;5.63;76.25
75899;DHT22;64576;50.460;4.866;2023-04-03T06:51:47;5.86;73.99
75899;DHT22;64576;50.460;4.866;2023-04-03T06:54:13;5.59;74.58
75899;DHT22;64576;50.460;4.866;2023-04-03T06:56:39;5.54;74.26
75899;DHT22;64576;50.460;4.866;2023-04-03T06:59:05;5.96;74.38
75899;DHT22;64576;50.460;4.866;2023-04-03T07:01:30;5.39;72.93
75899;DHT22;64576;50.460;4.866;2023-04-03T07:03:56;5.51;73.98
75899;DHT22;64576;50.460;4.866;2023-04-03T07:06:22;5.62;73.43
75899;DHT22;64576;50.460;4.866;2023-04-03T07:08:48;5.86;73.53
75899;DHT22;64576;50.460;4.866;2023-04-03T07:11:14;5.93;73.21
75899;DHT22;64576;50.460;4.866;2023-04-03T07:13:40;5.66;73.60
75899;DHT22;64576;50.460;4.866;2023-04-03T07:16:06;5.89;73.26
75899;DHT22;64576;50.460;4.866;2023-04-03T07:18:32;5.63;73.37
75899;DHT22;64576;50.460;4.866;2023-04-03T07:20:58;6.06;72.15
75899;DHT22;64576;50.460;4.866;2023-04-03T07:23:24;6.69;73.03
75899;DHT22;64576;50.460;4.866;2023-04-03T07:25:50;6.83;69.01
75899;DHT22;64576;50.460;4.866;2023-04-03T07:28:16;7.04;70.71
75899;DHT22;64576;50.460;4.866;2023-04-03T07:30:47;6.96;70.29
75899;DHT22;64576;50.460;4.866;2023-04-03T07:33:16;7.10;71.00
75899;DHT22;64576;50.460;4.866;2023-04-03T07:35:42;7.11;69.74
75899;DHT22;64576;50.460;4.866;2023-04-03T07:38:08;6.77;68.96
75899;DHT22;64576;50.460;4.866;2023-04-03T07:40:34;7.31;70.45
75899;DHT22;64576;50.460;4.866;2023-04-03T07:43:00;7.68;70.29
75899;DHT22;64576;50.460;4.866;2023-04-03T07:45:26;8.59;68.40
75899;DHT22;64576;50.460;4.866;2023-04-03T07:47:51;8.42;65.87
75899;DHT22;64576;50.460;4.866;2023-04-03T07:50:17;8.23;66.64
75899;DHT22;64576;50.460;4.866;2023-04-03T07:52:43;7.85;66.21
75899;DHT22;64576;50.460;4.866;2023-04-03T07:55:08;7.25;66.37
75899;DHT22;64576;50.460;4.866;2023-04-03T07:57:34;7.51;66.96
75899;DHT22;64576;50.460;4.866;2023-04-03T08:00:00;7.58;64.82
75899;DHT22;64576;50.460;4.866;2023-04-03T08:02:25;7.79;64.67
75899;DHT22;64576;50.460;4.866;2023-04-03T08:04:51;8.41;65.86
75899;DHT22;64576;50.460;4.866;2023-04-03T08:07:17;9.10;64.07
75899;DHT22;64576;50.460;4.866;2023-04-03T08:09:42;8.54;60.90
75899;DHT22;64576;50.460;4.866;2023-04-03T08:12:09;8.34;61.43
75899;DHT22;64576;50.460;4.866;2023-04-03T08:14:36;8.17;64.26
75899;DHT22;64576;50.460;4.866;2023-04-03T08:17:02;7.94;61.72
75899;DHT22;64576;50.460;4.866;2023-04-03T08:19:29;8.45;62.20
75899;DHT22;64576;50.460;4.866;2023-04-03T08:21:55;8.61;62.34
75899;DHT22;64576;50.460;4.866;2023-04-03T08:24:21;8.82;61.75
75899;DHT22;64576;50.460;4.866;2023-04-03T08:26:47;8.49;60.13
75899;DHT22;64576;50.460;4.866;2023-04-03T08:29:12;10.34;57.99
75899;DHT22;64576;50.460;4.866;2023-04-03T08:31:38;10.27;57.72
75899;DHT22;64576;50.460;4.866;2023-04-03T08:34:04;10.99;57.73
75899;DHT22;64576;50.460;4.866;2023-04-03T08:36:30;10.61;55.99
75899;DHT22;64576;50.460;4.866;2023-04-03T08:38:56;11.33;58.70
75899;DHT22;64576;50.460;4.866;2023-04-03T08:46:55;10.78;56.62
75899;DHT22;64576;50.460;4.866;2023-04-03T08:49:35;10.72;53.83
75899;DHT22;64576;50.460;4.866;2023-04-03T08:52:05;10.37;55.63
75899;DHT22;64576;50.460;4.866;2023-04-03T08:54:48;10.88;55.53
75899;DHT22;64576;50.460;4.866;2023-04-03T08:57:14;12.54;53.81
75899;DHT22;64576;50.460;4.866;2023-04-03T08:59:39;10.67;52.45
75899;DHT22;64576;50.460;4.866;2023-04-03T09:02:40;11.85;55.23
75899;DHT22;64576;50.460;4.866;2023-04-03T09:05:18;12.62;49.43
75899;DHT22;64576;50.460;4.866;2023-04-03T09:07:54;12.74;50.37
75899;DHT22;64576;50.460;4.866;2023-04-03T09:10:27;11.38;48.89
75899;DHT22;64576;50.460;4.866;2023-04-03T09:13:01;11.04;52.52
75899;DHT22;64576;50.460;4.866;2023-04-03T09:15:28;11.20;53.22
75899;DHT22;64576;50.460;4.866;2023-04-03T09:20:57;8.89;56.30
75899;DHT22;64576;50.460;4.866;2023-04-03T09:23:40;9.63;56.72
75899;DHT22;64576;50.460;4.866;2023-04-03T09:26:29;11.37;52.15
75899;DHT22;64576;50.460;4.866;2023-04-03T09:28:58;11.51;54.78
75899;DHT22;64576;50.460;4.866;2023-04-03T09:31:29;11.20;51.77
75899;DHT22;64576;50.460;4.866;2023-04-03T09:34:05;11.00;51.67
75899;DHT22;64576;50.460;4.866;2023-04-03T09:36:49;9.76;51.93
75899;DHT22;64576;50.460;4.866;2023-04-03T09:39:27;9.35;51.74
75899;DHT22;64576;50.460;4.866;2023-04-03T09:44:30;10.69;55.93
75899;DHT22;64576;50.460;4.866;2023-04-03T09:46:56;11.17;52.29
75899;DHT22;64576;50.460;4.866;2023-04-03T09:49:22;13.10;48.44
75899;DHT22;64576;50.460;4.866;2023-04-03T09:51:48;11.54;50.23
75899;DHT22;64576;50.460;4.866;2023-04-03T09:54:37;10.92;51.12
75899;DHT22;64576;50.460;4.866;2023-04-03T09:57:09;10.97;49.77
75899;DHT22;64576;50.460;4.866;2023-04-03T09:59:56;11.67;48.49
75899;DHT22;64576;50.460;4.866;2023-04-03T10:02:28;11.40;49.73
75899;DHT22;64576;50.460;4.866;2023-04-03T10:04:56;11.74;50.50
75899;DHT22;64576;50.460;4.866;2023-04-03T10:07:37;11.78;51.21
75899;DHT22;64576;50.460;4.866;2023-04-03T10:10:20;10.71;51.89
75899;DHT22;64576;50.460;4.866;2023-04-03T10:12:48;11.02;49.24
75899;DHT22;64576;50.460;4.866;2023-04-03T10:15:17;11.82;50.51
75899;DHT22;64576;50.460;4.866;2023-04-03T10:17:54;12.05;49.75
75899;DHT22;64576;50.460;4.866;2023-04-03T10:23:05;12.00;49.56
75899;DHT22;64576;50.460;4.866;2023-04-03T10:34:06;11.04;50.01
75899;DHT22;64576;50.460;4.866;2023-04-03T10:39:48;11.16;51.54
75899;DHT22;64576;50.460;4.866;2023-04-03T10:47:58;10.89;50.10
75899;DHT22;64576;50.460;4.866;2023-04-03T10:50:38;10.37;51.82
75899;DHT22;64576;50.460;4.866;2023-04-03T10:56:21;12.91;49.13
75899;DHT22;64576;50.460;4.866;2023-04-03T10:58:55;11.67;49.88
75899;DHT22;64576;50.460;4.866;2023-04-03T11:01:26;14.60;46.36
75899;DHT22;64576;50.460;4.866;2023-04-03T11:03:56;12.77;47.48
75899;DHT22;64576;50.460;4.866;2023-04-03T11:06:25;13.08;48.25
75899;DHT22;64576;50.460;4.866;2023-04-03T11:09:00;11.34;47.11
75899;DHT22;64576;50.460;4.866;2023-04-03T11:11:33;12.17;48.71
75899;DHT22;64576;50.460;4.866;2023-04-03T11:14:32;11.79;52.16
75899;DHT22;64576;50.460;4.866;2023-04-03T11:22:31;10.76;52.96
75899;DHT22;64576;50.460;4.866;2023-04-03T11:27:42;11.09;49.15
75899;DHT22;64576;50.460;4.866;2023-04-03T11:30:16;10.52;52.28
75899;DHT22;64576;50.460;4.866;2023-04-03T11:32:56;11.68;48.20
75899;DHT22;64576;50.460;4.866;2023-04-03T11:35:24;11.60;49.22
75899;DHT22;64576;50.460;4.866;2023-04-03T11:37:53;11.02;47.50
75899;DHT22;64576;50.460;4.866;2023-04-03T11:40:28;11.06;50.40
75899;DHT22;64576;50.460;4.866;2023-04-03T11:48:47;10.41;48.80
75899;DHT22;64576;50.460;4.866;2023-04-03T11:50:47;11.79;47.66
75899;DHT22;64576;50.460;4.866;2023-04-03T11:55:44;12.26;46.29
75899;DHT22;64576;50.460;4.866;2023-04-03T11:58:22;12.58;45.85
75899;DHT22;64576;50.460;4.866;2023-04-03T12:00:51;11.81;47.54
75899;DHT22;64576;50.460;4.866;2023-04-03T12:09:00;11.74;43.49
75899;DHT22;64576;50.460;4.866;2023-04-03T12:11:31;12.71;44.65
75899;DHT22;64576;50.460;4.866;2023-04-03T12:29:14;12.85;43.24
75899;DHT22;64576;50.460;4.866;2023-04-03T12:31:50;11.27;44.67
75899;DHT22;64576;50.460;4.866;2023-04-03T12:34:36;11.74;44.52
75899;DHT22;64576;50.460;4.866;2023-04-03T12:45:41;12.47;46.97
75899;DHT22;64576;50.460;4.866;2023-04-03T12:48:13;12.89;43.38
75899;DHT22;64576;50.460;4.866;2023-04-03T12:50:40;11.89;44.45
75899;DHT22;64576;50.460;4.866;2023-04-03T12:55:37;11.96;46.41
75899;DHT22;64576;50.460;4.866;2023-04-03T12:58:26;12.93;42.36
75899;DHT22;64576;50.460;4.866;2023-04-03T13:01:25;12.27;44.16
75899;DHT22;64576;50.460;4.866;2023-04-03T13:03:54;12.65;44.72
75899;DHT22;64576;50.460;4.866;2023-04-03T13:06:50;11.74;44.25
75899;DHT22;64576;50.460;4.866;2023-04-03T13:09:25;11.65;45.32
75899;DHT22;64576;50.460;4.866;2023-04-03T13:12:12;11.24;43.87
75899;DHT22;64576;50.460;4.866;2023-04-03T13:14:39;11.90;44.47
75899;DHT22;64576;50.460;4.866;2023-04-03T13:17:13;13.08;43.81
75899;DHT22;64576;50.460;4.866;2023-04-03T13:19:39;12.79;42.13
75899;DHT22;64576;50.460;4.866;2023-04-03T13:22:30;12.51;43.03
75899;DHT22;64576;50.460;4.866;2023-04-03T13:24:59;11.54;45.53
75899;DHT22;64576;50.460;4.866;2023-04-03T13:27:28;11.38;44.31
75899;DHT22;64576;50.460;4.866;2023-04-03T13:29:57;13.27;42.92
75899;DHT22;64576;50.460;4.866;2023-04-03T13:32:25;12.34;44.75
75899;DHT22;64576;50.460;4.866;2023-04-03T13:34:51;13.26;42.73
75899;DHT22;64576;50.460;4.866;2023-04-03T13:37:23;13.30;43.13
75899;DHT22;64576;50.460;4.866;2023-04-03T13:40:10;14.83;41.23
75899;DHT22;64576;50.460;4.866;2023-04-03T13:42:38;12.40;43.30
75899;DHT22;64576;50.460;4.866;2023-04-03T13:47:44;12.75;43.06
75899;DHT22;64576;50.460;4.866;2023-04-03T13:52:43;12.87;42.86
75899;DHT22;64576;50.460;4.866;2023-04-03T13:55:19;13.22;41.97
75899;DHT22;64576;50.460;4.866;2023-04-03T14:00:55;12.36;44.32
75899;DHT22;64576;50.460;4.866;2023-04-03T14:03:52;12.78;43.58
75899;DHT22;64576;50.460;4.866;2023-04-03T14:06:18;13.26;42.63
75899;DHT22;64576;50.460;4.866;2023-04-03T14:08:44;13.91;39.37
75899;DHT22;64576;50.460;4.866;2023-04-03T14:11:16;13.05;39.81
75899;DHT22;64576;50.460;4.866;2023-04-03T14:13:43;11.85;42.27
75899;DHT22;64576;50.460;4.866;2023-04-03T14:16:14;13.46;40.81
75899;DHT22;64576;50.460;4.866;2023-04-03T14:18:40;15.42;37.37
75899;DHT22;64576;50.460;4.866;2023-04-03T14:21:05;14.46;39.34
75899;DHT22;64576;50.460;4.866;2023-04-03T14:23:31;15.11;38.20
75899;DHT22;64576;50.460;4.866;2023-04-03T14:25:58;13.30;41.37
75899;DHT22;64576;50.460;4.866;2023-04-03T14:28:25;12.93;40.69
75899;DHT22;64576;50.460;4.866;2023-04-03T14:30:51;12.71;43.00
75899;DHT22;64576;50.460;4.866;2023-04-03T14:33:19;12.32;42.53
75899;DHT22;64576;50.460;4.866;2023-04-03T14:35:46;13.05;40.73
75899;DHT22;64576;50.460;4.866;2023-04-03T14:38:21;14.43;39.28
75899;DHT22;64576;50.460;4.866;2023-04-03T14:40:48;12.72;41.75
75899;DHT22;64576;50.460;4.866;2023-04-03T14:43:13;13.50;41.05
75899;DHT22;64576;50.460;4.866;2023-04-03T14:45:39;12.65;40.51
75899;DHT22;64576;50.460;4.866;2023-04-03T14:48:04;13.09;40.66
75899;DHT22;64576;50.460;4.866;2023-04-03T14:50:31;12.51;41.88
75899;DHT22;64576;50.460;4.866;2023-04-03T14:52:58;11.96;39.93
75899;DHT22;64576;50.460;4.866;2023-04-03T14:55:24;11.26;42.71
75899;DHT22;64576;50.460;4.866;2023-04-03T14:57:50;11.85;41.33
75899;DHT22;64576;50.460;4.866;2023-04-03T15:00:18;12.07;41.48
75899;DHT22;64576;50.460;4.866;2023-04-03T15:02:44;11.85;40.76
75899;DHT22;64576;50.460;4.866;2023-04-03T15:05:11;11.51;42.64
75899;DHT22;64576;50.460;4.866;2023-04-03T15:07:46;10.93;43.06
75899;DHT22;64576;50.460;4.866;2023-04-03T15:12:41;12.23;42.13
75899;DHT22;64576;50.460;4.866;2023-04-03T15:15:07;11.44;43.01
75899;DHT22;64576;50.460;4.866;2023-04-03T15:17:33;11.51;42.63
75899;DHT22;64576;50.460;4.866;2023-04-03T15:19:59;12.37;41.88
75899;DHT22;64576;50.460;4.866;2023-04-03T15:22:25;12.16;41.31
75899;DHT22;64576;50.460;4.866;2023-04-03T15:24:50;12.41;40.96
75899;DHT22;64576;50.460;4.866;2023-04-03T15:27:16;12.89;40.76
75899;DHT22;64576;50.460;4.866;2023-04-03T15:29:42;12.79;41.65
75899;DHT22;64576;50.460;4.866;2023-04-03T15:32:09;11.72;41.76
75899;DHT22;64576;50.460;4.866;2023-04-03T15:34:35;12.16;42.19
75899;DHT22;64576;50.460;4.866;2023-04-03T15:37:01;11.85;41.62
75899;DHT22;64576;50.460;4.866;2023-04-03T15:39:26;11.81;41.30
75899;DHT22;64576;50.460;4.866;2023-04-03T15:41:53;11.42;41.41
75899;DHT22;64576;50.460;4.866;2023-04-03T15:44:19;10.73;44.10
75899;DHT22;64576;50.460;4.866;2023-04-03T15:46:48;10.00;44.15
75899;DHT22;64576;50.460;4.866;2023-04-03T15:49:17;9.94;44.60
75899;DHT22;64576;50.460;4.866;2023-04-03T15:51:43;9.97;44.28
75899;DHT22;64576;50.460;4.866;2023-04-03T15:54:08;10.02;44.04
75899;DHT22;64576;50.460;4.866;2023-04-03T15:56:34;10.09;44.68
75899;DHT22;64576;50.460;4.866;2023-04-03T15:58:59;9.27;45.36
75899;DHT22;64576;50.460;4.866;2023-04-03T16:01:25;8.65;47.83
75899;DHT22;64576;50.460;4.866;2023-04-03T16:03:50;8.37;47.70
75899;DHT22;64576;50.460;4.866;2023-04-03T16:06:16;8.18;48.25
75899;DHT22;64576;50.460;4.866;2023-04-03T16:08:43;8.18;49.49
75899;DHT22;64576;50.460;4.866;2023-04-03T16:11:09;8.16;49.11
75899;DHT22;64576;50.460;4.866;2023-04-03T16:13:35;8.20;49.76
75899;DHT22;64576;50.460;4.866;2023-04-03T16:16:00;8.11;47.94
75899;DHT22;64576;50.460;4.866;2023-04-03T16:18:27;8.01;48.00
75899;DHT22;64576;50.460;4.866;2023-04-03T16:20:53;7.93;47.74
75899;DHT22;64576;50.460;4.866;2023-04-03T16:23:19;7.91;47.01
75899;DHT22;64576;50.460;4.866;2023-04-03T16:25:44;7.85;46.40
75899;DHT22;64576;50.460;4.866;2023-04-03T16:28:12;7.83;47.84
75899;DHT22;64576;50.460;4.866;2023-04-03T16:30:41;7.80;47.82
75899;DHT22;64576;50.460;4.866;2023-04-03T16:33:08;7.82;48.19
75899;DHT22;64576;50.460;4.866;2023-04-03T16:35:34;7.83;46.43
75899;DHT22;64576;50.460;4.866;2023-04-03T16:38:00;7.75;47.19
75899;DHT22;64576;50.460;4.866;2023-04-03T16:40:25;7.72;47.80
75899;DHT22;64576;50.460;4.866;2023-04-03T16:42:50;7.72;48.08
75899;DHT22;64576;50.460;4.866;2023-04-03T16:45:16;7.79;48.05
75899;DHT22;64576;50.460;4.866;2023-04-03T16:47:41;7.69;48.13
75899;DHT22;64576;50.460;4.866;2023-04-03T16:50:07;7.63;47.12
75899;DHT22;64576;50.460;4.866;2023-04-03T16:52:33;7.65;46.53
75899;DHT22;64576;50.460;4.866;2023-04-03T16:54:58;7.68;46.83
75899;DHT22;64576;50.460;4.866;2023-04-03T16:57:24;7.61;46.05
75899;DHT22;64576;50.460;4.866;2023-04-03T16:59:50;7.56;46.84
75899;DHT22;64576;50.460;4.866;2023-04-03T17:02:16;7.56;48.00
75899;DHT22;64576;50.460;4.866;2023-04-03T17:04:42;7.49;48.99
75899;DHT22;64576;50.460;4.866;2023-04-03T17:07:07;7.45;50.25
75899;DHT22;64576;50.460;4.866;2023-04-03T17:09:33;7.42;49.51
75899;DHT22;64576;50.460;4.866;2023-04-03T17:11:58;7.41;49.84
75899;DHT22;64576;50.460;4.866;2023-04-03T17:14:24;7.40;49.56
75899;DHT22;64576;50.460;4.866;2023-04-03T17:16:51;7.31;50.94
75899;DHT22;64576;50.460;4.866;2023-04-03T17:19:16;7.28;51.75
75899;DHT22;64576;50.460;4.866;2023-04-03T17:21:42;7.30;51.70
75899;DHT22;64576;50.460;4.866;2023-04-03T17:24:10;7.15;52.59
75899;DHT22;64576;50.460;4.866;2023-04-03T17:26:39;7.04;53.35
75899;DHT22;64576;50.460;4.866;2023-04-03T17:29:05;7.00;52.82